sensor_id;sensor_type;location;lat;lon;timestamp;P1;durP1;ratioP1;P2;durP2;ratioP2
7605;SDS011;3844;53.360;9.738;2022-12-29T00:01:31;12.27;;;7.65;;
7605;SDS011;3844;53.360;9.738;2022-12-29T00:03:32;15.40;;;7.68;;
7605;SDS011;3844;53.360;9.738;2022-12-29T00:05:33;12.60;;;7.18;;
7605;SDS011;3844;53.360;9.738;2022-12-29T00:07:34;14.98;;;7.63;;
7605;SDS011;3844;53.360;9.738;2022-12-29T00:09:35;16.50;;;7.88;;
7605;SDS011;3844;53.360;9.738;2022-12-29T00:11:36;16.52;;;8.15;;
7605;SDS011;3844;53.360;9.738;2022-12-29T00:13:37;14.88;;;8.02;;
7605;SDS011;3844;53.360;9.738;2022-12-29T00:15:56;13.13;;;7.70;;
7605;SDS011;3844;53.360;9.738;2022-12-29T00:17:57;13.63;;;7.65;;
7605;SDS011;3844;53.360;9.738;2022-12-29T00:19:58;15.73;;;8.23;;
7605;SDS011;3844;53.360;9.738;2022-12-29T00:22:18;13.68;;;8.27;;
7605;SDS011;3844;53.360;9.738;2022-12-29T00:24:37;12.05;;;7.90;;
7605;SDS011;3844;53.360;9.738;2022-12-29T00:27:26;13.38;;;7.82;;
7605;SDS011;3844;53.360;9.738;2022-12-29T00:29:38;13.15;;;7.88;;
7605;SDS011;3844;53.360;9.738;2022-12-29T00:31:57;13.88;;;7.68;;
7605;SDS011;3844;53.360;9.738;2022-12-29T00:34:17;13.50;;;7.70;;
7605;SDS011;3844;53.360;9.738;2022-12-29T00:36:36;12.73;;;7.53;;
7605;SDS011;3844;53.360;9.738;2022-12-29T00:38:43;13.98;;;7.70;;
7605;SDS011;3844;53.360;9.738;2022-12-29T00:41:07;14.80;;;7.88;;
7605;SDS011;3844;53.360;9.738;2022-12-29T00:43:26;12.45;;;7.15;;
7605;SDS011;3844;53.360;9.738;2022-12-29T00:45:45;15.82;;;7.80;;
7605;SDS011;3844;53.360;9.738;2022-12-29T00:47:46;13.88;;;7.65;;
7605;SDS011;3844;53.360;9.738;2022-12-29T00:49:47;11.80;;;7.47;;
7605;SDS011;3844;53.360;9.738;2022-12-29T00:51:47;12.88;;;7.50;;
7605;SDS011;3844;53.360;9.738;2022-12-29T00:53:48;13.05;;;7.03;;
7605;SDS011;3844;53.360;9.738;2022-12-29T00:55:49;11.45;;;7.45;;
7605;SDS011;3844;53.360;9.738;2022-12-29T00:57:50;12.13;;;7.43;;
7605;SDS011;3844;53.360;9.738;2022-12-29T00:59:51;14.48;;;7.72;;
7605;SDS011;3844;53.360;9.738;2022-12-29T01:01:52;12.63;;;7.30;;
7605;SDS011;3844;53.360;9.738;2022-12-29T01:03:54;10.90;;;6.93;;
7605;SDS011;3844;53.360;9.738;2022-12-29T01:05:54;10.45;;;6.47;;
7605;SDS011;3844;53.360;9.738;2022-12-29T01:07:55;12.20;;;7.00;;
7605;SDS011;3844;53.360;9.738;2022-12-29T01:09:56;12.93;;;7.32;;
7605;SDS011;3844;53.360;9.738;2022-12-29T01:12:09;12.37;;;7.30;;
7605;SDS011;3844;53.360;9.738;2022-12-29T01:14:10;12.25;;;6.80;;
7605;SDS011;3844;53.360;9.738;2022-12-29T01:16:11;11.63;;;7.45;;
7605;SDS011;3844;53.360;9.738;2022-12-29T01:18:12;10.98;;;6.40;;
7605;SDS011;3844;53.360;9.738;2022-12-29T01:20:13;10.45;;;6.32;;
7605;SDS011;3844;53.360;9.738;2022-12-29T01:22:14;12.20;;;6.88;;
7605;SDS011;3844;53.360;9.738;2022-12-29T01:24:16;12.68;;;7.47;;
7605;SDS011;3844;53.360;9.738;2022-12-29T01:26:17;11.98;;;6.85;;
7605;SDS011;3844;53.360;9.738;2022-12-29T01:28:18;14.38;;;7.57;;
7605;SDS011;3844;53.360;9.738;2022-12-29T01:30:19;11.25;;;6.88;;
7605;SDS011;3844;53.360;9.738;2022-12-29T01:32:20;12.73;;;7.50;;
7605;SDS011;3844;53.360;9.738;2022-12-29T01:34:20;12.20;;;6.97;;
7605;SDS011;3844;53.360;9.738;2022-12-29T01:36:22;11.93;;;7.13;;
7605;SDS011;3844;53.360;9.738;2022-12-29T01:38:23;11.35;;;7.30;;
7605;SDS011;3844;53.360;9.738;2022-12-29T01:40:24;13.57;;;7.60;;
7605;SDS011;3844;53.360;9.738;2022-12-29T01:42:25;12.45;;;7.50;;
7605;SDS011;3844;53.360;9.738;2022-12-29T01:44:47;12.80;;;7.68;;
7605;SDS011;3844;53.360;9.738;2022-12-29T01:46:52;12.32;;;7.40;;
7605;SDS011;3844;53.360;9.738;2022-12-29T01:49:03;13.85;;;7.63;;
7605;SDS011;3844;53.360;9.738;2022-12-29T01:51:07;16.20;;;7.90;;
7605;SDS011;3844;53.360;9.738;2022-12-29T01:53:16;14.32;;;8.10;;
7605;SDS011;3844;53.360;9.738;2022-12-29T01:55:21;13.13;;;7.60;;
7605;SDS011;3844;53.360;9.738;2022-12-29T01:57:27;13.27;;;7.25;;
7605;SDS011;3844;53.360;9.738;2022-12-29T01:59:33;12.48;;;7.15;;
7605;SDS011;3844;53.360;9.738;2022-12-29T02:01:36;12.13;;;6.80;;
7605;SDS011;3844;53.360;9.738;2022-12-29T02:03:37;12.93;;;7.32;;
7605;SDS011;3844;53.360;9.738;2022-12-29T02:05:39;12.48;;;7.80;;
7605;SDS011;3844;53.360;9.738;2022-12-29T02:08:01;14.00;;;7.70;;
7605;SDS011;3844;53.360;9.738;2022-12-29T02:10:02;13.85;;;7.75;;
7605;SDS011;3844;53.360;9.738;2022-12-29T02:12:03;12.27;;;7.20;;
7605;SDS011;3844;53.360;9.738;2022-12-29T02:14:08;10.70;;;7.15;;
7605;SDS011;3844;53.360;9.738;2022-12-29T02:25:56;11.00;;;6.68;;
7605;SDS011;3844;53.360;9.738;2022-12-29T02:32:52;10.65;;;6.10;;
7605;SDS011;3844;53.360;9.738;2022-12-29T02:35:16;9.43;;;6.05;;
7605;SDS011;3844;53.360;9.738;2022-12-29T02:37:31;9.02;;;5.93;;
7605;SDS011;3844;53.360;9.738;2022-12-29T02:39:55;10.20;;;5.78;;
7605;SDS011;3844;53.360;9.738;2022-12-29T02:42:14;9.35;;;5.70;;
7605;SDS011;3844;53.360;9.738;2022-12-29T02:46:47;9.25;;;5.55;;
7605;SDS011;3844;53.360;9.738;2022-12-29T02:49:25;9.45;;;5.78;;
7605;SDS011;3844;53.360;9.738;2022-12-29T02:51:39;7.80;;;5.18;;
7605;SDS011;3844;53.360;9.738;2022-12-29T02:53:46;7.22;;;4.15;;
7605;SDS011;3844;53.360;9.738;2022-12-29T02:56:06;9.90;;;5.32;;
7605;SDS011;3844;53.360;9.738;2022-12-29T02:58:22;7.95;;;4.80;;
7605;SDS011;3844;53.360;9.738;2022-12-29T03:00:23;8.00;;;4.75;;
7605;SDS011;3844;53.360;9.738;2022-12-29T03:02:45;10.13;;;5.40;;
7605;SDS011;3844;53.360;9.738;2022-12-29T03:07:19;7.63;;;4.70;;
7605;SDS011;3844;53.360;9.738;2022-12-29T03:12:30;7.22;;;4.60;;
7605;SDS011;3844;53.360;9.738;2022-12-29T03:15:10;7.28;;;4.40;;
7605;SDS011;3844;53.360;9.738;2022-12-29T03:17:41;8.32;;;4.25;;
7605;SDS011;3844;53.360;9.738;2022-12-29T03:20:14;6.57;;;4.15;;
7605;SDS011;3844;53.360;9.738;2022-12-29T03:22:25;7.97;;;4.22;;
7605;SDS011;3844;53.360;9.738;2022-12-29T03:24:35;7.45;;;4.07;;
7605;SDS011;3844;53.360;9.738;2022-12-29T03:26:40;8.63;;;4.53;;
7605;SDS011;3844;53.360;9.738;2022-12-29T03:28:44;7.75;;;4.38;;
7605;SDS011;3844;53.360;9.738;2022-12-29T03:30:49;7.35;;;4.40;;
7605;SDS011;3844;53.360;9.738;2022-12-29T03:32:54;7.90;;;4.70;;
7605;SDS011;3844;53.360;9.738;2022-12-29T03:34:58;8.00;;;4.75;;
7605;SDS011;3844;53.360;9.738;2022-12-29T03:37:00;7.22;;;4.50;;
7605;SDS011;3844;53.360;9.738;2022-12-29T03:39:08;6.57;;;4.28;;
7605;SDS011;3844;53.360;9.738;2022-12-29T03:41:13;6.40;;;4.47;;
7605;SDS011;3844;53.360;9.738;2022-12-29T03:43:17;7.93;;;4.10;;
7605;SDS011;3844;53.360;9.738;2022-12-29T03:45:19;7.65;;;3.85;;
7605;SDS011;3844;53.360;9.738;2022-12-29T03:47:20;6.75;;;3.67;;
7605;SDS011;3844;53.360;9.738;2022-12-29T03:49:21;6.90;;;3.45;;
7605;SDS011;3844;53.360;9.738;2022-12-29T03:51:21;5.32;;;3.53;;
7605;SDS011;3844;53.360;9.738;2022-12-29T03:53:22;5.25;;;3.42;;
7605;SDS011;3844;53.360;9.738;2022-12-29T03:55:23;5.57;;;3.15;;
7605;SDS011;3844;53.360;9.738;2022-12-29T03:57:24;5.85;;;3.50;;
7605;SDS011;3844;53.360;9.738;2022-12-29T03:59:25;6.10;;;3.28;;
7605;SDS011;3844;53.360;9.738;2022-12-29T04:01:26;5.38;;;2.90;;
7605;SDS011;3844;53.360;9.738;2022-12-29T04:03:26;5.35;;;3.00;;
7605;SDS011;3844;53.360;9.738;2022-12-29T04:05:27;5.53;;;2.70;;
7605;SDS011;3844;53.360;9.738;2022-12-29T04:07:28;5.80;;;2.70;;
7605;SDS011;3844;53.360;9.738;2022-12-29T04:09:29;5.55;;;2.55;;
7605;SDS011;3844;53.360;9.738;2022-12-29T04:11:31;5.10;;;2.38;;
7605;SDS011;3844;53.360;9.738;2022-12-29T04:13:32;6.72;;;2.50;;
7605;SDS011;3844;53.360;9.738;2022-12-29T04:15:33;4.85;;;2.38;;
7605;SDS011;3844;53.360;9.738;2022-12-29T04:17:34;4.80;;;2.40;;
7605;SDS011;3844;53.360;9.738;2022-12-29T04:19:35;4.57;;;2.30;;
7605;SDS011;3844;53.360;9.738;2022-12-29T04:21:35;4.25;;;2.60;;
7605;SDS011;3844;53.360;9.738;2022-12-29T04:23:37;5.75;;;2.53;;
7605;SDS011;3844;53.360;9.738;2022-12-29T04:25:38;4.82;;;2.50;;
7605;SDS011;3844;53.360;9.738;2022-12-29T04:27:39;4.28;;;2.30;;
7605;SDS011;3844;53.360;9.738;2022-12-29T04:29:40;6.05;;;2.30;;
7605;SDS011;3844;53.360;9.738;2022-12-29T04:31:40;3.50;;;2.03;;
7605;SDS011;3844;53.360;9.738;2022-12-29T04:33:41;3.80;;;2.10;;
7605;SDS011;3844;53.360;9.738;2022-12-29T04:35:43;5.18;;;2.00;;
7605;SDS011;3844;53.360;9.738;2022-12-29T04:37:44;4.43;;;1.90;;
7605;SDS011;3844;53.360;9.738;2022-12-29T04:39:44;3.20;;;1.80;;
7605;SDS011;3844;53.360;9.738;2022-12-29T04:41:45;3.58;;;1.90;;
7605;SDS011;3844;53.360;9.738;2022-12-29T04:43:46;3.30;;;1.73;;
7605;SDS011;3844;53.360;9.738;2022-12-29T04:45:47;4.10;;;1.52;;
7605;SDS011;3844;53.360;9.738;2022-12-29T04:47:48;2.80;;;1.60;;
7605;SDS011;3844;53.360;9.738;2022-12-29T04:49:51;3.10;;;1.65;;
7605;SDS011;3844;53.360;9.738;2022-12-29T04:51:52;3.97;;;1.98;;
7605;SDS011;3844;53.360;9.738;2022-12-29T04:53:56;3.30;;;1.80;;
7605;SDS011;3844;53.360;9.738;2022-12-29T04:55:56;3.67;;;1.92;;
7605;SDS011;3844;53.360;9.738;2022-12-29T04:57:57;4.65;;;2.25;;
7605;SDS011;3844;53.360;9.738;2022-12-29T04:59:58;4.35;;;2.30;;
7605;SDS011;3844;53.360;9.738;2022-12-29T05:01:59;3.63;;;1.90;;
7605;SDS011;3844;53.360;9.738;2022-12-29T05:04:00;5.50;;;2.33;;
7605;SDS011;3844;53.360;9.738;2022-12-29T05:06:01;4.25;;;2.50;;
7605;SDS011;3844;53.360;9.738;2022-12-29T05:08:02;5.43;;;2.70;;
7605;SDS011;3844;53.360;9.738;2022-12-29T05:10:03;4.10;;;2.50;;
7605;SDS011;3844;53.360;9.738;2022-12-29T05:12:04;4.88;;;2.60;;
7605;SDS011;3844;53.360;9.738;2022-12-29T05:14:06;4.68;;;2.30;;
7605;SDS011;3844;53.360;9.738;2022-12-29T05:16:07;5.18;;;2.67;;
7605;SDS011;3844;53.360;9.738;2022-12-29T05:18:10;4.30;;;2.40;;
7605;SDS011;3844;53.360;9.738;2022-12-29T05:20:11;4.05;;;2.47;;
7605;SDS011;3844;53.360;9.738;2022-12-29T05:22:12;4.28;;;2.50;;
7605;SDS011;3844;53.360;9.738;2022-12-29T05:24:14;4.35;;;2.50;;
7605;SDS011;3844;53.360;9.738;2022-12-29T05:26:15;4.18;;;2.30;;
7605;SDS011;3844;53.360;9.738;2022-12-29T05:28:16;4.88;;;2.28;;
7605;SDS011;3844;53.360;9.738;2022-12-29T05:30:16;4.80;;;2.22;;
7605;SDS011;3844;53.360;9.738;2022-12-29T05:32:17;4.13;;;2.33;;
7605;SDS011;3844;53.360;9.738;2022-12-29T05:34:18;4.85;;;2.38;;
7605;SDS011;3844;53.360;9.738;2022-12-29T05:36:19;5.65;;;2.30;;
7605;SDS011;3844;53.360;9.738;2022-12-29T05:38:20;5.32;;;2.10;;
7605;SDS011;3844;53.360;9.738;2022-12-29T05:40:20;3.97;;;2.10;;
7605;SDS011;3844;53.360;9.738;2022-12-29T05:42:21;3.63;;;1.80;;
7605;SDS011;3844;53.360;9.738;2022-12-29T05:44:22;5.20;;;2.13;;
7605;SDS011;3844;53.360;9.738;2022-12-29T05:46:23;3.60;;;1.88;;
7605;SDS011;3844;53.360;9.738;2022-12-29T05:48:24;5.88;;;2.10;;
7605;SDS011;3844;53.360;9.738;2022-12-29T05:50:24;4.50;;;2.00;;
7605;SDS011;3844;53.360;9.738;2022-12-29T05:52:25;3.97;;;2.47;;
7605;SDS011;3844;53.360;9.738;2022-12-29T05:54:26;5.07;;;2.30;;
7605;SDS011;3844;53.360;9.738;2022-12-29T05:56:27;4.35;;;2.10;;
7605;SDS011;3844;53.360;9.738;2022-12-29T05:58:28;4.15;;;1.90;;
7605;SDS011;3844;53.360;9.738;2022-12-29T06:00:29;4.47;;;2.35;;
7605;SDS011;3844;53.360;9.738;2022-12-29T06:02:29;5.00;;;2.22;;
7605;SDS011;3844;53.360;9.738;2022-12-29T06:04:31;4.85;;;2.50;;
7605;SDS011;3844;53.360;9.738;2022-12-29T06:06:31;4.43;;;2.30;;
7605;SDS011;3844;53.360;9.738;2022-12-29T06:08:32;4.68;;;2.45;;
7605;SDS011;3844;53.360;9.738;2022-12-29T06:10:33;4.72;;;2.28;;
7605;SDS011;3844;53.360;9.738;2022-12-29T06:12:34;5.35;;;2.40;;
7605;SDS011;3844;53.360;9.738;2022-12-29T06:14:35;4.25;;;2.00;;
7605;SDS011;3844;53.360;9.738;2022-12-29T06:16:36;4.15;;;1.90;;
7605;SDS011;3844;53.360;9.738;2022-12-29T06:18:36;2.90;;;1.40;;
7605;SDS011;3844;53.360;9.738;2022-12-29T06:20:37;3.03;;;1.20;;
7605;SDS011;3844;53.360;9.738;2022-12-29T06:22:38;4.03;;;1.00;;
7605;SDS011;3844;53.360;9.738;2022-12-29T06:24:39;2.92;;;1.00;;
7605;SDS011;3844;53.360;9.738;2022-12-29T06:26:40;3.17;;;1.10;;
7605;SDS011;3844;53.360;9.738;2022-12-29T06:28:41;2.58;;;1.13;;
7605;SDS011;3844;53.360;9.738;2022-12-29T06:30:43;3.00;;;1.10;;
7605;SDS011;3844;53.360;9.738;2022-12-29T06:32:45;3.57;;;1.40;;
7605;SDS011;3844;53.360;9.738;2022-12-29T06:34:46;3.45;;;1.35;;
7605;SDS011;3844;53.360;9.738;2022-12-29T06:36:47;4.22;;;1.70;;
7605;SDS011;3844;53.360;9.738;2022-12-29T06:38:48;6.80;;;3.35;;
7605;SDS011;3844;53.360;9.738;2022-12-29T06:40:52;5.50;;;3.15;;
7605;SDS011;3844;53.360;9.738;2022-12-29T06:42:53;6.05;;;3.70;;
7605;SDS011;3844;53.360;9.738;2022-12-29T06:44:54;6.15;;;3.92;;
7605;SDS011;3844;53.360;9.738;2022-12-29T06:47:01;6.20;;;3.88;;
7605;SDS011;3844;53.360;9.738;2022-12-29T06:49:01;7.00;;;3.67;;
7605;SDS011;3844;53.360;9.738;2022-12-29T06:51:03;6.47;;;3.70;;
7605;SDS011;3844;53.360;9.738;2022-12-29T06:53:03;7.78;;;4.22;;
7605;SDS011;3844;53.360;9.738;2022-12-29T06:55:04;6.85;;;4.05;;
7605;SDS011;3844;53.360;9.738;2022-12-29T06:57:05;6.45;;;3.88;;
7605;SDS011;3844;53.360;9.738;2022-12-29T06:59:06;5.82;;;4.10;;
7605;SDS011;3844;53.360;9.738;2022-12-29T07:01:09;7.78;;;5.35;;
7605;SDS011;3844;53.360;9.738;2022-12-29T07:03:12;7.65;;;4.07;;
7605;SDS011;3844;53.360;9.738;2022-12-29T07:05:13;7.63;;;4.03;;
7605;SDS011;3844;53.360;9.738;2022-12-29T07:07:14;6.20;;;4.15;;
7605;SDS011;3844;53.360;9.738;2022-12-29T07:09:14;8.05;;;4.00;;
7605;SDS011;3844;53.360;9.738;2022-12-29T07:11:15;7.47;;;3.92;;
7605;SDS011;3844;53.360;9.738;2022-12-29T07:13:16;7.03;;;3.75;;
7605;SDS011;3844;53.360;9.738;2022-12-29T07:15:17;6.68;;;3.97;;
7605;SDS011;3844;53.360;9.738;2022-12-29T07:17:21;6.95;;;3.78;;
7605;SDS011;3844;53.360;9.738;2022-12-29T07:19:22;5.68;;;3.75;;
7605;SDS011;3844;53.360;9.738;2022-12-29T07:21:23;6.13;;;4.00;;
7605;SDS011;3844;53.360;9.738;2022-12-29T07:23:24;9.20;;;4.75;;
7605;SDS011;3844;53.360;9.738;2022-12-29T07:25:28;8.30;;;4.75;;
7605;SDS011;3844;53.360;9.738;2022-12-29T07:27:38;6.20;;;4.40;;
7605;SDS011;3844;53.360;9.738;2022-12-29T07:30:04;6.80;;;4.30;;
7605;SDS011;3844;53.360;9.738;2022-12-29T07:32:10;7.43;;;4.45;;
7605;SDS011;3844;53.360;9.738;2022-12-29T07:34:14;7.95;;;4.18;;
7605;SDS011;3844;53.360;9.738;2022-12-29T07:36:18;7.47;;;4.03;;
7605;SDS011;3844;53.360;9.738;2022-12-29T07:38:21;5.90;;;3.97;;
7605;SDS011;3844;53.360;9.738;2022-12-29T07:40:22;7.30;;;4.30;;
7605;SDS011;3844;53.360;9.738;2022-12-29T07:42:23;5.85;;;3.50;;
7605;SDS011;3844;53.360;9.738;2022-12-29T07:44:24;6.57;;;3.58;;
7605;SDS011;3844;53.360;9.738;2022-12-29T07:46:25;6.43;;;3.38;;
7605;SDS011;3844;53.360;9.738;2022-12-29T07:48:28;6.28;;;3.22;;
7605;SDS011;3844;53.360;9.738;2022-12-29T07:50:29;6.43;;;3.35;;
7605;SDS011;3844;53.360;9.738;2022-12-29T07:52:33;4.95;;;2.90;;
7605;SDS011;3844;53.360;9.738;2022-12-29T07:54:40;6.57;;;3.20;;
7605;SDS011;3844;53.360;9.738;2022-12-29T07:56:43;5.65;;;2.90;;
7605;SDS011;3844;53.360;9.738;2022-12-29T07:58:47;4.43;;;2.95;;
7605;SDS011;3844;53.360;9.738;2022-12-29T08:00:53;8.60;;;3.40;;
7605;SDS011;3844;53.360;9.738;2022-12-29T08:02:58;7.78;;;3.08;;
7605;SDS011;3844;53.360;9.738;2022-12-29T08:04:59;6.07;;;3.00;;
7605;SDS011;3844;53.360;9.738;2022-12-29T08:06:59;5.65;;;2.90;;
7605;SDS011;3844;53.360;9.738;2022-12-29T08:09:01;7.80;;;3.00;;
7605;SDS011;3844;53.360;9.738;2022-12-29T08:11:01;5.55;;;2.47;;
7605;SDS011;3844;53.360;9.738;2022-12-29T08:13:02;7.80;;;2.58;;
7605;SDS011;3844;53.360;9.738;2022-12-29T08:15:03;5.35;;;2.90;;
7605;SDS011;3844;53.360;9.738;2022-12-29T08:17:05;4.97;;;2.22;;
7605;SDS011;3844;53.360;9.738;2022-12-29T08:19:10;6.25;;;2.10;;
7605;SDS011;3844;53.360;9.738;2022-12-29T08:21:11;4.25;;;2.08;;
7605;SDS011;3844;53.360;9.738;2022-12-29T08:23:12;5.68;;;2.10;;
7605;SDS011;3844;53.360;9.738;2022-12-29T08:25:13;5.68;;;2.00;;
7605;SDS011;3844;53.360;9.738;2022-12-29T08:27:14;6.00;;;2.80;;
7605;SDS011;3844;53.360;9.738;2022-12-29T08:29:18;6.95;;;3.03;;
7605;SDS011;3844;53.360;9.738;2022-12-29T08:31:22;6.53;;;1.80;;
7605;SDS011;3844;53.360;9.738;2022-12-29T08:33:23;4.93;;;1.70;;
7605;SDS011;3844;53.360;9.738;2022-12-29T08:35:24;5.50;;;1.50;;
7605;SDS011;3844;53.360;9.738;2022-12-29T08:37:25;4.18;;;1.70;;
7605;SDS011;3844;53.360;9.738;2022-12-29T08:39:26;4.68;;;1.60;;
7605;SDS011;3844;53.360;9.738;2022-12-29T08:41:28;4.88;;;1.65;;
7605;SDS011;3844;53.360;9.738;2022-12-29T08:43:29;5.10;;;1.60;;
7605;SDS011;3844;53.360;9.738;2022-12-29T08:45:30;5.13;;;1.50;;
7605;SDS011;3844;53.360;9.738;2022-12-29T08:47:32;5.03;;;1.33;;
7605;SDS011;3844;53.360;9.738;2022-12-29T08:49:33;4.90;;;1.20;;
7605;SDS011;3844;53.360;9.738;2022-12-29T08:51:33;5.43;;;1.30;;
7605;SDS011;3844;53.360;9.738;2022-12-29T08:53:34;3.67;;;1.00;;
7605;SDS011;3844;53.360;9.738;2022-12-29T08:55:35;3.72;;;1.10;;
7605;SDS011;3844;53.360;9.738;2022-12-29T08:57:36;5.15;;;1.20;;
7605;SDS011;3844;53.360;9.738;2022-12-29T08:59:37;3.95;;;1.13;;
7605;SDS011;3844;53.360;9.738;2022-12-29T09:01:44;4.38;;;1.10;;
7605;SDS011;3844;53.360;9.738;2022-12-29T09:03:45;5.15;;;1.13;;
7605;SDS011;3844;53.360;9.738;2022-12-29T09:05:50;5.63;;;1.88;;
7605;SDS011;3844;53.360;9.738;2022-12-29T09:07:52;5.90;;;1.20;;
7605;SDS011;3844;53.360;9.738;2022-12-29T09:09:53;5.20;;;1.20;;
7605;SDS011;3844;53.360;9.738;2022-12-29T09:11:54;5.68;;;1.20;;
7605;SDS011;3844;53.360;9.738;2022-12-29T09:13:55;6.18;;;1.25;;
7605;SDS011;3844;53.360;9.738;2022-12-29T09:15:59;2.85;;;0.90;;
7605;SDS011;3844;53.360;9.738;2022-12-29T09:18:00;5.45;;;1.02;;
7605;SDS011;3844;53.360;9.738;2022-12-29T09:20:01;5.85;;;1.00;;
7605;SDS011;3844;53.360;9.738;2022-12-29T09:22:04;6.22;;;1.23;;
7605;SDS011;3844;53.360;9.738;2022-12-29T09:24:05;4.28;;;0.93;;
7605;SDS011;3844;53.360;9.738;2022-12-29T09:26:06;6.32;;;1.02;;
7605;SDS011;3844;53.360;9.738;2022-12-29T09:28:07;5.47;;;0.90;;
7605;SDS011;3844;53.360;9.738;2022-12-29T09:30:09;6.00;;;1.10;;
7605;SDS011;3844;53.360;9.738;2022-12-29T09:32:11;5.72;;;0.88;;
7605;SDS011;3844;53.360;9.738;2022-12-29T09:34:12;6.60;;;1.00;;
7605;SDS011;3844;53.360;9.738;2022-12-29T09:36:13;4.90;;;0.90;;
7605;SDS011;3844;53.360;9.738;2022-12-29T09:38:14;7.93;;;1.00;;
7605;SDS011;3844;53.360;9.738;2022-12-29T09:40:20;4.63;;;0.90;;
7605;SDS011;3844;53.360;9.738;2022-12-29T09:47:05;5.65;;;1.00;;
7605;SDS011;3844;53.360;9.738;2022-12-29T09:51:24;5.75;;;1.13;;
7605;SDS011;3844;53.360;9.738;2022-12-29T09:53:35;5.55;;;1.20;;
7605;SDS011;3844;53.360;9.738;2022-12-29T09:55:48;4.43;;;0.93;;
7605;SDS011;3844;53.360;9.738;2022-12-29T09:59:54;5.75;;;1.00;;
7605;SDS011;3844;53.360;9.738;2022-12-29T10:02:03;5.70;;;0.90;;
7605;SDS011;3844;53.360;9.738;2022-12-29T10:04:13;5.65;;;1.20;;
7605;SDS011;3844;53.360;9.738;2022-12-29T10:08:52;7.25;;;1.15;;
7605;SDS011;3844;53.360;9.738;2022-12-29T10:15:26;5.45;;;1.10;;
7605;SDS011;3844;53.360;9.738;2022-12-29T10:24:38;4.65;;;1.08;;
7605;SDS011;3844;53.360;9.738;2022-12-29T10:26:41;4.70;;;1.10;;
7605;SDS011;3844;53.360;9.738;2022-12-29T10:28:45;6.25;;;1.20;;
7605;SDS011;3844;53.360;9.738;2022-12-29T10:30:53;6.63;;;1.00;;
7605;SDS011;3844;53.360;9.738;2022-12-29T10:32:56;5.88;;;1.10;;
7605;SDS011;3844;53.360;9.738;2022-12-29T10:35:04;7.18;;;1.30;;
7605;SDS011;3844;53.360;9.738;2022-12-29T10:39:22;7.18;;;1.10;;
7605;SDS011;3844;53.360;9.738;2022-12-29T10:41:32;6.60;;;1.02;;
7605;SDS011;3844;53.360;9.738;2022-12-29T10:43:44;5.00;;;1.00;;
7605;SDS011;3844;53.360;9.738;2022-12-29T10:45:47;8.43;;;1.38;;
7605;SDS011;3844;53.360;9.738;2022-12-29T10:47:53;7.00;;;1.00;;
7605;SDS011;3844;53.360;9.738;2022-12-29T10:50:01;7.07;;;1.20;;
7605;SDS011;3844;53.360;9.738;2022-12-29T10:52:02;6.25;;;1.00;;
7605;SDS011;3844;53.360;9.738;2022-12-29T10:54:12;6.75;;;0.98;;
7605;SDS011;3844;53.360;9.738;2022-12-29T10:56:40;7.70;;;0.90;;
7605;SDS011;3844;53.360;9.738;2022-12-29T10:58:40;6.10;;;0.85;;
7605;SDS011;3844;53.360;9.738;2022-12-29T11:00:43;5.83;;;0.90;;
7605;SDS011;3844;53.360;9.738;2022-12-29T11:07:47;6.53;;;1.00;;
7605;SDS011;3844;53.360;9.738;2022-12-29T11:09:49;4.43;;;0.90;;
7605;SDS011;3844;53.360;9.738;2022-12-29T11:11:50;4.75;;;0.82;;
7605;SDS011;3844;53.360;9.738;2022-12-29T11:13:56;3.50;;;0.75;;
7605;SDS011;3844;53.360;9.738;2022-12-29T11:16:30;5.15;;;1.00;;
7605;SDS011;3844;53.360;9.738;2022-12-29T11:20:37;6.65;;;0.88;;
7605;SDS011;3844;53.360;9.738;2022-12-29T11:22:39;7.65;;;1.00;;
7605;SDS011;3844;53.360;9.738;2022-12-29T11:24:45;4.15;;;0.70;;
7605;SDS011;3844;53.360;9.738;2022-12-29T11:26:52;6.10;;;0.90;;
7605;SDS011;3844;53.360;9.738;2022-12-29T11:31:16;4.40;;;0.70;;
7605;SDS011;3844;53.360;9.738;2022-12-29T11:33:18;3.88;;;0.80;;
7605;SDS011;3844;53.360;9.738;2022-12-29T11:35:38;3.85;;;0.70;;
7605;SDS011;3844;53.360;9.738;2022-12-29T11:37:44;3.65;;;0.70;;
7605;SDS011;3844;53.360;9.738;2022-12-29T11:39:49;4.90;;;0.80;;
7605;SDS011;3844;53.360;9.738;2022-12-29T11:41:51;4.47;;;0.70;;
7605;SDS011;3844;53.360;9.738;2022-12-29T11:43:53;9.02;;;0.80;;
7605;SDS011;3844;53.360;9.738;2022-12-29T11:45:56;5.60;;;1.00;;
7605;SDS011;3844;53.360;9.738;2022-12-29T11:48:12;5.13;;;0.80;;
7605;SDS011;3844;53.360;9.738;2022-12-29T11:50:21;4.93;;;0.90;;
7605;SDS011;3844;53.360;9.738;2022-12-29T11:52:25;4.72;;;0.73;;
7605;SDS011;3844;53.360;9.738;2022-12-29T11:54:33;7.75;;;1.48;;
7605;SDS011;3844;53.360;9.738;2022-12-29T11:56:40;5.88;;;1.00;;
7605;SDS011;3844;53.360;9.738;2022-12-29T11:58:43;3.47;;;0.75;;
7605;SDS011;3844;53.360;9.738;2022-12-29T12:00:44;6.10;;;1.00;;
7605;SDS011;3844;53.360;9.738;2022-12-29T12:05:07;7.13;;;0.90;;
7605;SDS011;3844;53.360;9.738;2022-12-29T12:07:37;8.02;;;1.02;;
7605;SDS011;3844;53.360;9.738;2022-12-29T12:24:29;8.38;;;1.20;;
7605;SDS011;3844;53.360;9.738;2022-12-29T12:38:25;7.45;;;1.17;;
7605;SDS011;3844;53.360;9.738;2022-12-29T12:58:37;9.63;;;1.20;;
7605;SDS011;3844;53.360;9.738;2022-12-29T13:00:57;7.47;;;1.10;;
7605;SDS011;3844;53.360;9.738;2022-12-29T13:10:26;8.15;;;1.42;;
7605;SDS011;3844;53.360;9.738;2022-12-29T13:22:22;5.05;;;0.90;;
7605;SDS011;3844;53.360;9.738;2022-12-29T13:26:47;6.70;;;1.20;;
7605;SDS011;3844;53.360;9.738;2022-12-29T13:33:55;7.55;;;1.30;;
7605;SDS011;3844;53.360;9.738;2022-12-29T13:45:08;6.80;;;1.20;;
7605;SDS011;3844;53.360;9.738;2022-12-29T13:47:44;7.07;;;1.10;;
7605;SDS011;3844;53.360;9.738;2022-12-29T13:50:15;5.78;;;1.00;;
7605;SDS011;3844;53.360;9.738;2022-12-29T13:57:22;8.38;;;1.20;;
7605;SDS011;3844;53.360;9.738;2022-12-29T13:59:52;7.35;;;1.13;;
7605;SDS011;3844;53.360;9.738;2022-12-29T14:08:16;8.02;;;1.20;;
7605;SDS011;3844;53.360;9.738;2022-12-29T14:15:50;7.97;;;1.25;;
7605;SDS011;3844;53.360;9.738;2022-12-29T14:20:35;5.88;;;1.25;;
7605;SDS011;3844;53.360;9.738;2022-12-29T14:23:00;8.02;;;1.20;;
7605;SDS011;3844;53.360;9.738;2022-12-29T14:25:49;7.25;;;1.13;;
7605;SDS011;3844;53.360;9.738;2022-12-29T14:27:52;6.22;;;1.10;;
7605;SDS011;3844;53.360;9.738;2022-12-29T14:33:11;6.63;;;1.08;;
7605;SDS011;3844;53.360;9.738;2022-12-29T14:37:42;6.53;;;1.10;;
7605;SDS011;3844;53.360;9.738;2022-12-29T14:39:44;8.65;;;1.30;;
7605;SDS011;3844;53.360;9.738;2022-12-29T14:41:47;9.10;;;1.40;;
7605;SDS011;3844;53.360;9.738;2022-12-29T14:49:41;5.10;;;1.30;;
7605;SDS011;3844;53.360;9.738;2022-12-29T14:52:26;7.40;;;1.40;;
7605;SDS011;3844;53.360;9.738;2022-12-29T14:55:28;6.65;;;1.60;;
7605;SDS011;3844;53.360;9.738;2022-12-29T14:57:39;7.07;;;1.30;;
7605;SDS011;3844;53.360;9.738;2022-12-29T15:00:32;8.73;;;1.42;;
7605;SDS011;3844;53.360;9.738;2022-12-29T15:06:02;7.35;;;1.42;;
7605;SDS011;3844;53.360;9.738;2022-12-29T15:08:39;6.07;;;1.30;;
7605;SDS011;3844;53.360;9.738;2022-12-29T15:13:49;8.20;;;1.55;;
7605;SDS011;3844;53.360;9.738;2022-12-29T15:21:05;7.45;;;1.50;;
7605;SDS011;3844;53.360;9.738;2022-12-29T15:23:14;6.30;;;1.40;;
7605;SDS011;3844;53.360;9.738;2022-12-29T15:25:22;7.05;;;1.60;;
7605;SDS011;3844;53.360;9.738;2022-12-29T15:27:26;6.45;;;1.55;;
7605;SDS011;3844;53.360;9.738;2022-12-29T15:30:16;8.38;;;1.63;;
7605;SDS011;3844;53.360;9.738;2022-12-29T15:32:39;9.05;;;1.38;;
7605;SDS011;3844;53.360;9.738;2022-12-29T15:35:13;6.57;;;1.23;;
7605;SDS011;3844;53.360;9.738;2022-12-29T15:37:53;9.18;;;1.45;;
7605;SDS011;3844;53.360;9.738;2022-12-29T15:39:55;9.60;;;1.40;;
7605;SDS011;3844;53.360;9.738;2022-12-29T15:44:38;6.45;;;1.23;;
7605;SDS011;3844;53.360;9.738;2022-12-29T15:46:47;7.00;;;1.42;;
7605;SDS011;3844;53.360;9.738;2022-12-29T15:49:04;6.80;;;1.50;;
7605;SDS011;3844;53.360;9.738;2022-12-29T15:51:31;6.93;;;1.33;;
7605;SDS011;3844;53.360;9.738;2022-12-29T15:53:57;5.88;;;1.00;;
7605;SDS011;3844;53.360;9.738;2022-12-29T15:55:59;7.50;;;1.50;;
7605;SDS011;3844;53.360;9.738;2022-12-29T15:58:20;7.28;;;1.42;;
7605;SDS011;3844;53.360;9.738;2022-12-29T16:00:33;6.28;;;1.20;;
7605;SDS011;3844;53.360;9.738;2022-12-29T16:02:51;6.85;;;1.30;;
7605;SDS011;3844;53.360;9.738;2022-12-29T16:05:34;8.65;;;1.30;;